San Luis Potosí, México

7:09 AM CDT en Julio 26, 2016 (GMT -0500)
Ponciano Arriaga International | | Change Station

Alt 6033 ft 22.26 °N, 100.93 °W | Updated 22 minutes ago

Scattered Clouds
Nubes dispersas
57 ° F
Sensación térmica 57 ° F
N
5
Viento Variable Viento desde SSO

Hoy
Alta -- | Baja -- ° F
--% Posibilidad de precipitaciones
Ayer
Alta -- | Baja -- ° F
Precip. -- pul
Presión 29.81 pul
Visibilidad 6.0 Millas
Nubes Nubes dispersas 2500 ft
Punto de rocío 52 ° F
Humedad 82%
Precipitaciones 0.00 pul
Espesor de la nieve No disponible.
7:13 AM 8:26 PM
Gibosa menguante, 55% visible
METAR MMSP 261147Z 21004KT 6SM SCT025 14/11 A3022 RMK SLP094 57002 955 8/500 AC HZY
Presión 29.81 pul
Visibilidad 6.0 Millas
Nubes Nubes dispersas 2500 ft
Punto de rocío 52 ° F
Humedad 82%
Precipitaciones 0.00 pul
Espesor de la nieve No disponible.
7:13 AM 8:26 PM
Gibosa menguante, 55% visible
METAR MMSP 261147Z 21004KT 6SM SCT025 14/11 A3022 RMK SLP094 57002 955 8/500 AC HZY

10-Day Weather Forecast

No radar image for this location.
×

Almanac

Astronomía

Jul. 26, 2016 Salida Puesta
Hora real
Crepúsculo civil
Crepúsculo náutico
Crepúsculo astronómico
Luna
Horas de luz
Horas de luz
Tomorrow will be .
, % of the Moon is Illuminated

Extremos de hoy

Máximos del país Bajas del país

Community

WunderPhotos

Upload Photos

1,927,580 ¡fotos cargadas!

WunderBlog® & News

Nearby

Calidad del aire

  Calidad del aire Índice AQ Contaminante
Not available.

Grosos de nieve

Estación Profundido Altura

Actividad de terremotos

Ciudad Distance Mag. Tiempo y dato
Magnitud mínima muestra es 2,5.

Temperaturas de aguas costeras

Lugar Temperatura

Stations

Estaciones meteorológicas cercanas

Ubicación de la estación Temp. Vientos helados Punto de rocío Humedad Viento Precip. Alt Actualizado Tipo